createdAt,value
2022-09-28T00:01:21.123Z,3.27
2022-09-28T00:03:51.555Z,3.37
2022-09-28T00:06:23.483Z,3.13
2022-09-28T00:08:51.813Z,2.43
2022-09-28T00:11:22.292Z,2.60
2022-09-28T00:13:56.749Z,2.80
2022-09-28T00:16:31.740Z,3.97
2022-09-28T00:18:59.822Z,5.20
2022-09-28T00:21:34.142Z,2.87
2022-09-28T00:24:13.170Z,3.17
2022-09-28T00:26:57.528Z,3.33
2022-09-28T00:29:36.836Z,2.77
2022-09-28T00:32:15.715Z,5.13
2022-09-28T00:34:49.019Z,2.80
2022-09-28T00:37:16.550Z,3.40
2022-09-28T00:39:45.982Z,2.93
2022-09-28T00:42:21.242Z,5.23
2022-09-28T00:44:49.504Z,3.03
2022-09-28T00:47:39.700Z,3.27
2022-09-28T00:50:26.796Z,2.97
2022-09-28T00:53:20.735Z,2.90
2022-09-28T00:56:07.220Z,3.17
2022-09-28T00:58:42.007Z,3.17
2022-09-28T01:01:09.239Z,2.80
2022-09-28T01:03:41.428Z,3.80
2022-09-28T01:06:09.872Z,3.63
2022-09-28T01:08:39.647Z,4.27
2022-09-28T01:11:07.312Z,3.80
2022-09-28T01:13:35.723Z,4.13
2022-09-28T01:16:38.705Z,4.83
2022-09-28T01:19:22.994Z,4.00
2022-09-28T01:22:09.999Z,4.23
2022-09-28T01:24:47.707Z,4.27
2022-09-28T01:27:41.825Z,4.43
2022-09-28T01:30:16.725Z,4.47
2022-09-28T01:33:12.442Z,4.37
2022-09-28T01:35:57.021Z,4.63
2022-09-28T01:38:55.229Z,5.10
2022-09-28T01:41:26.834Z,4.23
2022-09-28T01:44:03.675Z,5.20
2022-09-28T01:46:44.902Z,5.80
2022-09-28T01:49:25.974Z,5.40
2022-09-28T01:52:05.178Z,5.50
2022-09-28T01:54:43.164Z,6.20
2022-09-28T01:57:32.451Z,6.53
2022-09-28T02:00:13.569Z,6.73
2022-09-28T02:02:56.380Z,6.30
2022-09-28T02:05:33.714Z,7.43
2022-09-28T02:08:52.951Z,7.60
2022-09-28T02:11:23.485Z,6.47
2022-09-28T02:14:01.623Z,6.40
2022-09-28T02:16:47.721Z,6.63
2022-09-28T02:19:31.072Z,6.53
2022-09-28T02:22:26.328Z,7.73
2022-09-28T02:25:13.960Z,7.27
2022-09-28T02:28:00.001Z,8.07
2022-09-28T02:31:05.715Z,8.43
2022-09-28T02:33:44.160Z,7.90
2022-09-28T02:36:12.063Z,7.63
2022-09-28T02:38:40.102Z,7.83
2022-09-28T02:41:48.188Z,7.63
2022-09-28T02:44:42.422Z,8.23
2022-09-28T02:47:46.362Z,8.43
2022-09-28T02:50:34.594Z,8.70
2022-09-28T02:53:07.446Z,8.80
2022-09-28T02:56:05.757Z,11.57
2022-09-28T02:58:59.203Z,9.10
2022-09-28T03:01:58.586Z,9.37
2022-09-28T03:04:37.775Z,10.10
2022-09-28T03:07:34.361Z,11.27
2022-09-28T03:10:14.317Z,13.17
2022-09-28T03:12:45.401Z,12.53
2022-09-28T03:15:29.300Z,14.60
2022-09-28T03:17:58.191Z,14.43
2022-09-28T03:20:27.644Z,14.20
2022-09-28T03:23:19.750Z,13.10
2022-09-28T03:25:42.019Z,13.40
2022-09-28T03:28:09.141Z,12.80
2022-09-28T03:30:36.264Z,13.43
2022-09-28T03:33:03.601Z,12.90
2022-09-28T03:35:30.653Z,12.23
2022-09-28T03:37:57.781Z,12.43
2022-09-28T03:40:25.247Z,12.63
2022-09-28T03:42:52.448Z,12.90
2022-09-28T03:45:19.613Z,13.70
2022-09-28T03:47:48.815Z,13.53
2022-09-28T03:50:16.470Z,13.17
2022-09-28T03:52:43.736Z,12.40
2022-09-28T03:55:11.402Z,13.03
2022-09-28T03:57:38.816Z,12.77
2022-09-28T04:00:07.113Z,13.90
2022-09-28T04:02:35.175Z,13.13
2022-09-28T04:05:02.819Z,13.90
2022-09-28T04:07:32.810Z,12.43
2022-09-28T04:10:00.098Z,12.17
2022-09-28T04:12:27.281Z,12.00
2022-09-28T04:14:54.425Z,11.60
2022-09-28T04:17:21.695Z,10.77
2022-09-28T04:19:49.028Z,10.60
2022-09-28T04:22:18.853Z,11.20
2022-09-28T04:24:46.688Z,10.50
2022-09-28T04:27:32.617Z,10.70
2022-09-28T04:29:59.984Z,10.27
2022-09-28T04:32:27.287Z,10.40
2022-09-28T04:34:54.401Z,11.13
2022-09-28T04:37:21.477Z,10.03
2022-09-28T04:39:48.781Z,10.00
2022-09-28T04:42:16.106Z,9.80
2022-09-28T04:44:43.445Z,10.27
2022-09-28T04:47:10.583Z,9.47
2022-09-28T04:49:38.545Z,10.43
2022-09-28T04:52:06.892Z,9.60
2022-09-28T04:54:34.164Z,10.43
2022-09-28T04:57:06.223Z,10.77
2022-09-28T04:59:33.650Z,9.07
2022-09-28T05:02:00.812Z,10.33
2022-09-28T05:04:28.293Z,9.97
2022-09-28T05:06:55.289Z,9.10
2022-09-28T05:09:22.305Z,10.53
2022-09-28T05:11:53.181Z,10.20
2022-09-28T05:14:22.109Z,8.87
2022-09-28T05:16:49.575Z,8.23
2022-09-28T05:19:16.696Z,8.50
2022-09-28T05:21:47.003Z,8.13
2022-09-28T05:24:14.102Z,8.47
2022-09-28T05:26:41.147Z,8.10
2022-09-28T05:29:08.217Z,8.23
2022-09-28T05:31:35.310Z,8.57
2022-09-28T05:34:02.659Z,8.70
2022-09-28T05:36:30.113Z,8.50
2022-09-28T05:38:57.531Z,9.90
2022-09-28T05:41:24.823Z,8.97
2022-09-28T05:43:52.437Z,7.87
2022-09-28T05:46:20.352Z,8.00
2022-09-28T05:48:47.654Z,7.93
2022-09-28T05:51:14.801Z,8.03
2022-09-28T05:53:41.949Z,8.57
2022-09-28T05:56:09.104Z,7.43
2022-09-28T05:58:36.249Z,7.37
2022-09-28T06:01:03.797Z,7.43
2022-09-28T06:04:09.738Z,7.67
2022-09-28T06:06:56.047Z,7.73
2022-09-28T06:09:26.237Z,7.20
2022-09-28T06:11:53.745Z,7.23
2022-09-28T06:14:20.935Z,9.77
2022-09-28T06:16:48.062Z,8.27
2022-09-28T06:19:15.246Z,7.83
2022-09-28T06:21:42.593Z,7.30
2022-09-28T06:24:10.010Z,7.07
2022-09-28T06:26:37.153Z,5.63
2022-09-28T06:29:04.440Z,6.77
2022-09-28T06:31:31.534Z,6.83
2022-09-28T06:33:59.737Z,6.90
2022-09-28T06:36:31.486Z,7.03
2022-09-28T06:38:58.656Z,7.03
2022-09-28T06:41:25.793Z,6.53
2022-09-28T06:43:53.298Z,6.97
2022-09-28T06:46:21.077Z,6.60
2022-09-28T06:48:49.088Z,6.87
2022-09-28T06:51:19.301Z,6.40
2022-09-28T06:53:46.454Z,7.13
2022-09-28T06:56:13.875Z,6.77
2022-09-28T06:58:40.907Z,6.93
2022-09-28T07:01:08.188Z,6.27
2022-09-28T07:03:35.259Z,6.07
2022-09-28T07:06:02.837Z,6.97
2022-09-28T07:08:30.104Z,6.77
2022-09-28T07:10:57.547Z,7.33
2022-09-28T07:13:48.742Z,6.77
2022-09-28T07:16:16.249Z,6.27
2022-09-28T07:18:43.536Z,7.23
2022-09-28T07:21:19.545Z,7.23
2022-09-28T07:23:53.811Z,7.60
2022-09-28T07:26:24.323Z,6.77
2022-09-28T07:28:52.684Z,7.07
2022-09-28T07:31:20.095Z,7.40
2022-09-28T07:33:51.619Z,8.67
2022-09-28T07:36:21.065Z,6.33
2022-09-28T07:38:50.927Z,7.47
2022-09-28T07:41:22.673Z,6.27
2022-09-28T07:43:50.189Z,6.90
2022-09-28T07:46:17.966Z,6.47
2022-09-28T07:48:46.043Z,6.47
2022-09-28T07:51:13.339Z,7.53
2022-09-28T07:53:40.542Z,6.47
2022-09-28T07:56:09.546Z,7.83
2022-09-28T07:58:39.185Z,8.23
2022-09-28T08:01:15.265Z,7.07
2022-09-28T08:03:48.189Z,6.50
2022-09-28T08:06:17.882Z,7.73
2022-09-28T08:08:45.287Z,7.90
2022-09-28T08:11:20.589Z,7.13
2022-09-28T08:13:48.042Z,7.40
2022-09-28T08:16:15.381Z,6.50
2022-09-28T08:18:42.663Z,6.97
2022-09-28T08:21:31.518Z,6.80
2022-09-28T08:23:58.876Z,6.63
2022-09-28T08:26:26.034Z,6.70
2022-09-28T08:28:53.209Z,5.90
2022-09-28T08:31:20.454Z,7.50
2022-09-28T08:33:54.485Z,5.43
2022-09-28T08:36:21.829Z,5.87
2022-09-28T08:38:49.035Z,5.60
2022-09-28T08:41:50.947Z,6.20
2022-09-28T08:44:24.424Z,5.60
2022-09-28T08:47:02.267Z,6.13
2022-09-28T08:49:37.140Z,5.50
2022-09-28T08:52:14.305Z,5.40
2022-09-28T08:54:56.400Z,5.20
2022-09-28T08:57:38.482Z,5.50
2022-09-28T09:00:10.990Z,4.33
2022-09-28T09:02:39.895Z,4.60
2022-09-28T09:05:15.018Z,4.93
2022-09-28T09:08:12.583Z,4.77
2022-09-28T09:11:04.398Z,4.30
2022-09-28T09:14:13.253Z,4.13
2022-09-28T09:17:00.972Z,3.87
2022-09-28T09:19:53.137Z,3.97
2022-09-28T09:22:41.304Z,4.87
2022-09-28T09:25:50.896Z,4.03
2022-09-28T09:28:26.839Z,4.97
2022-09-28T09:31:33.287Z,4.20
2022-09-28T09:34:11.176Z,4.20
2022-09-28T09:37:21.683Z,4.03
2022-09-28T09:39:56.028Z,4.03
2022-09-28T09:42:38.799Z,5.53
2022-09-28T09:45:11.783Z,3.90
2022-09-28T09:47:48.137Z,4.33
2022-09-28T09:50:33.673Z,3.73
2022-09-28T09:53:36.211Z,4.00
2022-09-28T09:56:53.537Z,3.77
2022-09-28T09:59:33.738Z,3.07
2022-09-28T10:02:35.028Z,3.67
2022-09-28T10:05:17.130Z,3.20
2022-09-28T10:08:02.566Z,3.07
2022-09-28T10:10:38.121Z,3.00
2022-09-28T10:13:05.504Z,3.40
2022-09-28T10:19:34.924Z,2.83
2022-09-28T10:22:06.714Z,2.70
2022-09-28T10:24:45.982Z,2.77
2022-09-28T10:27:23.723Z,2.20
2022-09-28T10:30:18.870Z,2.80
2022-09-28T10:32:49.618Z,1.80
2022-09-28T10:35:19.733Z,3.63
2022-09-28T10:37:59.880Z,2.47
2022-09-28T10:40:51.265Z,2.20
2022-09-28T10:43:27.105Z,2.47
2022-09-28T10:46:13.589Z,2.30
2022-09-28T10:49:09.695Z,2.67
2022-09-28T10:51:54.969Z,2.00
2022-09-28T10:54:29.891Z,3.07
2022-09-28T10:56:59.564Z,1.57
2022-09-28T10:59:37.225Z,2.33
2022-09-28T11:02:42.610Z,2.53
2022-09-28T11:05:27.903Z,2.20
2022-09-28T11:08:00.265Z,2.20
2022-09-28T11:10:31.636Z,2.17
2022-09-28T11:13:00.352Z,1.70
2022-09-28T11:15:33.687Z,1.93
2022-09-28T11:18:27.614Z,2.07
2022-09-28T11:21:19.360Z,2.10
2022-09-28T11:24:19.161Z,2.80
2022-09-28T11:26:52.748Z,1.70
2022-09-28T11:29:31.006Z,1.87
2022-09-28T11:32:04.320Z,1.97
2022-09-28T11:34:58.598Z,2.77
2022-09-28T11:37:56.767Z,1.97
2022-09-28T11:40:35.663Z,2.00
2022-09-28T11:43:54.522Z,2.17
2022-09-28T11:46:46.451Z,2.23
2022-09-28T11:50:03.498Z,2.40
2022-09-28T11:52:48.646Z,1.90
2022-09-28T11:55:18.930Z,2.73
2022-09-28T11:58:03.839Z,2.80
2022-09-28T12:00:35.503Z,2.30
2022-09-28T12:03:27.356Z,2.20
2022-09-28T12:06:08.819Z,2.30
2022-09-28T12:08:44.858Z,2.10
2022-09-28T12:11:23.636Z,2.20
2022-09-28T12:13:54.509Z,2.97
2022-09-28T12:20:01.265Z,2.60
2022-09-28T12:22:54.834Z,1.80
2022-09-28T12:25:25.607Z,1.90
2022-09-28T12:28:08.102Z,1.90
2022-09-28T12:30:40.832Z,2.20
2022-09-28T12:33:15.472Z,3.10
2022-09-28T12:36:14.274Z,1.83
2022-09-28T12:39:35.637Z,2.00
2022-09-28T12:42:28.899Z,1.93
2022-09-28T12:45:38.475Z,1.93
2022-09-28T12:49:04.109Z,2.23
2022-09-28T12:51:55.178Z,2.70
2022-09-28T12:54:50.763Z,2.17
2022-09-28T12:57:40.861Z,1.53
2022-09-28T13:00:25.334Z,2.23
2022-09-28T13:03:32.875Z,2.83
2022-09-28T13:06:46.418Z,1.90
2022-09-28T13:09:22.720Z,1.90
2022-09-28T13:12:11.567Z,2.00
2022-09-28T13:14:54.025Z,3.73
2022-09-28T13:18:01.906Z,2.03
2022-09-28T13:20:37.807Z,2.07
2022-09-28T13:23:27.874Z,2.13
2022-09-28T13:26:17.243Z,2.27
2022-09-28T13:28:47.217Z,1.90
2022-09-28T13:31:22.879Z,2.10
2022-09-28T13:33:52.492Z,2.77
2022-09-28T13:36:26.209Z,2.30
2022-09-28T13:38:55.805Z,1.70
2022-09-28T13:41:30.256Z,1.70
2022-09-28T13:44:12.952Z,1.87
2022-09-28T13:47:11.929Z,2.43
2022-09-28T13:50:19.166Z,2.00
2022-09-28T13:53:01.223Z,1.90
2022-09-28T13:55:35.197Z,1.60
2022-09-28T13:58:29.378Z,2.17
2022-09-28T14:01:15.122Z,1.80
2022-09-28T14:04:15.042Z,1.90
2022-09-28T14:06:51.415Z,1.80
2022-09-28T14:09:44.937Z,2.17
2022-09-28T14:12:34.213Z,1.57
2022-09-28T14:15:06.613Z,1.60
2022-09-28T14:18:11.299Z,1.63
2022-09-28T14:20:46.546Z,1.80
2022-09-28T14:23:38.710Z,1.03
2022-09-28T14:27:17.617Z,1.77
2022-09-28T14:29:45.659Z,1.37
2022-09-28T14:32:12.669Z,2.07
2022-09-28T14:34:55.032Z,1.70
2022-09-28T14:37:54.286Z,1.90
2022-09-28T14:40:49.939Z,1.63
2022-09-28T14:43:37.060Z,1.93
2022-09-28T14:46:11.065Z,2.10
2022-09-28T14:48:58.418Z,1.60
2022-09-28T14:51:30.282Z,1.67
2022-09-28T14:54:09.054Z,2.63
2022-09-28T14:56:45.650Z,2.20
2022-09-28T14:59:30.786Z,3.13
2022-09-28T15:02:08.870Z,2.77
2022-09-28T15:04:46.904Z,2.10
2022-09-28T15:07:29.949Z,3.00
2022-09-28T15:09:59.749Z,3.40
2022-09-28T15:12:31.649Z,2.97
2022-09-28T15:15:03.226Z,3.30
2022-09-28T15:17:39.804Z,2.40
2022-09-28T15:20:35.526Z,2.27
2022-09-28T15:23:05.257Z,1.40
2022-09-28T15:25:39.514Z,1.53
2022-09-28T15:28:23.888Z,1.80
2022-09-28T15:30:52.070Z,1.37
2022-09-28T15:33:51.122Z,2.43
2022-09-28T15:36:41.466Z,1.53
2022-09-28T15:39:39.105Z,2.00
2022-09-28T15:42:06.961Z,1.63
2022-09-28T15:44:40.077Z,1.27
2022-09-28T15:47:25.079Z,2.37
2022-09-28T15:50:00.326Z,2.40
2022-09-28T15:52:45.123Z,1.93
2022-09-28T15:55:30.726Z,2.43
2022-09-28T15:58:22.909Z,2.53
2022-09-28T16:01:27.850Z,2.27
2022-09-28T16:03:55.272Z,3.67
2022-09-28T16:06:23.294Z,2.10
2022-09-28T16:08:50.568Z,2.33
2022-09-28T16:11:26.407Z,2.87
2022-09-28T16:14:09.065Z,3.07
2022-09-28T16:16:46.982Z,4.20
2022-09-28T16:19:37.948Z,1.90
2022-09-28T16:22:16.571Z,2.77
2022-09-28T16:24:56.751Z,2.30
2022-09-28T16:27:42.917Z,2.73
2022-09-28T16:30:24.395Z,2.20
2022-09-28T16:33:25.824Z,2.57
2022-09-28T16:35:53.702Z,2.00
2022-09-28T16:38:21.261Z,2.20
2022-09-28T16:40:55.099Z,2.30
2022-09-28T16:43:28.576Z,2.47
2022-09-28T16:46:17.838Z,3.67
2022-09-28T16:48:49.214Z,2.53
2022-09-28T16:51:18.564Z,2.60
2022-09-28T16:54:05.361Z,2.30
2022-09-28T16:56:35.904Z,2.63
2022-09-28T16:59:03.402Z,2.60
2022-09-28T17:01:31.616Z,2.50
2022-09-28T17:03:59.048Z,2.50
2022-09-28T17:06:27.183Z,2.90
2022-09-28T17:08:56.870Z,2.77
2022-09-28T17:11:25.093Z,2.40
2022-09-28T17:13:59.325Z,2.70
2022-09-28T17:17:02.329Z,2.40
2022-09-28T17:19:25.981Z,2.13
2022-09-28T17:21:53.762Z,2.40
2022-09-28T17:24:21.414Z,3.00
2022-09-28T17:26:51.922Z,4.47
2022-09-28T17:29:20.007Z,7.77
2022-09-28T17:31:50.455Z,4.80
2022-09-28T17:34:17.898Z,4.20
2022-09-28T17:36:45.596Z,3.87
2022-09-28T17:39:19.258Z,3.83
2022-09-28T17:41:46.716Z,3.37
2022-09-28T17:44:16.883Z,3.47
2022-09-28T17:46:48.722Z,3.70
2022-09-28T17:49:17.181Z,3.60
2022-09-28T17:51:44.460Z,3.60
2022-09-28T17:54:13.218Z,3.23
2022-09-28T17:56:40.473Z,3.90
2022-09-28T17:59:18.004Z,7.33
2022-09-28T18:01:45.540Z,6.83
2022-09-28T18:04:33.318Z,5.77
2022-09-28T18:07:01.035Z,5.17
2022-09-28T18:09:28.403Z,6.03
2022-09-28T18:12:04.155Z,5.07
2022-09-28T18:14:31.340Z,4.60
2022-09-28T18:16:58.663Z,4.03
2022-09-28T18:19:31.783Z,4.40
2022-09-28T18:21:59.416Z,5.30
2022-09-28T18:24:26.723Z,5.60
2022-09-28T18:26:54.031Z,5.90
2022-09-28T18:29:21.321Z,7.73
2022-09-28T18:31:48.921Z,8.27
2022-09-28T18:34:16.470Z,6.87
2022-09-28T18:36:43.740Z,6.60
2022-09-28T18:39:11.148Z,9.47
2022-09-28T18:41:38.672Z,9.90
2022-09-28T18:44:06.001Z,8.03
2022-09-28T18:46:36.560Z,6.93
2022-09-28T18:49:05.482Z,5.40
2022-09-28T18:51:32.815Z,5.23
2022-09-28T18:54:07.312Z,4.30
2022-09-28T18:56:37.424Z,5.43
2022-09-28T18:59:12.103Z,5.57
2022-09-28T19:01:42.086Z,5.37
2022-09-28T19:04:11.591Z,5.57
2022-09-28T19:06:41.504Z,5.83
2022-09-28T19:09:09.334Z,5.63
2022-09-28T19:11:36.586Z,6.73
2022-09-28T19:14:03.800Z,6.07
2022-09-28T19:16:34.244Z,5.67
2022-09-28T19:19:02.928Z,5.83
2022-09-28T19:21:33.314Z,5.43
2022-09-28T19:24:05.057Z,5.33
2022-09-28T19:26:33.358Z,5.23
2022-09-28T19:29:01.205Z,5.43
2022-09-28T19:31:30.289Z,5.23
2022-09-28T19:33:57.663Z,5.70
2022-09-28T19:36:28.699Z,5.27
2022-09-28T19:39:04.249Z,5.43
2022-09-28T19:41:53.095Z,6.07
2022-09-28T19:44:27.396Z,5.20
2022-09-28T19:47:07.114Z,5.17
2022-09-28T19:49:38.131Z,4.47
2022-09-28T19:52:16.067Z,4.63
2022-09-28T19:54:57.064Z,4.90
2022-09-28T19:57:30.214Z,4.53
2022-09-28T20:00:01.994Z,4.50
2022-09-28T20:02:29.550Z,4.50
2022-09-28T20:04:56.794Z,5.03
2022-09-28T20:07:23.934Z,5.67
2022-09-28T20:09:51.796Z,4.60
2022-09-28T20:12:19.073Z,4.90
2022-09-28T20:14:46.214Z,4.87
2022-09-28T20:17:13.285Z,4.87
2022-09-28T20:19:40.543Z,4.97
2022-09-28T20:22:07.703Z,5.43
2022-09-28T20:24:37.991Z,5.63
2022-09-28T20:27:05.114Z,5.30
2022-09-28T20:29:33.683Z,5.20
2022-09-28T20:32:01.972Z,4.73
2022-09-28T20:34:29.451Z,5.03
2022-09-28T20:36:56.647Z,5.77
2022-09-28T20:39:23.735Z,5.20
2022-09-28T20:41:50.929Z,6.03
2022-09-28T20:44:18.375Z,8.47
2022-09-28T20:46:45.674Z,6.17
2022-09-28T20:49:12.925Z,8.93
2022-09-28T20:51:40.006Z,6.50
2022-09-28T20:54:07.577Z,6.83
2022-09-28T20:56:39.390Z,6.30
2022-09-28T20:59:12.241Z,6.20
2022-09-28T21:01:40.187Z,5.83
2022-09-28T21:04:10.057Z,6.40
2022-09-28T21:06:41.503Z,7.53
2022-09-28T21:09:11.385Z,6.00
2022-09-28T21:11:39.685Z,6.57
2022-09-28T21:14:09.715Z,6.63
2022-09-28T21:16:39.369Z,6.77
2022-09-28T21:19:06.664Z,6.70
2022-09-28T21:21:33.954Z,6.60
2022-09-28T21:24:02.189Z,6.70
2022-09-28T21:26:31.543Z,5.80
2022-09-28T21:29:02.231Z,6.63
2022-09-28T21:31:43.304Z,6.10
2022-09-28T21:34:14.233Z,6.90
2022-09-28T21:36:43.590Z,6.97
2022-09-28T21:39:10.894Z,6.87
2022-09-28T21:41:38.176Z,7.20
2022-09-28T21:44:12.063Z,7.10
2022-09-28T21:46:39.465Z,6.30
2022-09-28T21:49:08.347Z,7.17
2022-09-28T21:51:36.337Z,7.33
2022-09-28T21:54:05.226Z,6.50
2022-09-28T21:56:32.472Z,6.87
2022-09-28T21:59:01.429Z,6.10
2022-09-28T22:01:29.443Z,7.43
2022-09-28T22:03:58.024Z,6.90
2022-09-28T22:06:30.320Z,7.10
2022-09-28T22:08:57.872Z,7.33
2022-09-28T22:11:28.187Z,7.87
2022-09-28T22:14:00.311Z,9.23
2022-09-28T22:16:31.015Z,9.57
2022-09-28T22:18:59.501Z,7.87
2022-09-28T22:21:32.020Z,7.53
2022-09-28T22:24:01.605Z,7.37
2022-09-28T22:26:31.791Z,7.77
2022-09-28T22:29:07.111Z,6.70
2022-09-28T22:31:40.461Z,7.70
2022-09-28T22:34:08.954Z,7.73
2022-09-28T22:36:36.282Z,7.97
2022-09-28T22:39:04.723Z,7.87
2022-09-28T22:41:32.282Z,7.10
2022-09-28T22:43:59.896Z,7.97
2022-09-28T22:46:29.935Z,7.37
2022-09-28T22:48:59.714Z,7.80
2022-09-28T22:51:31.315Z,7.47
2022-09-28T22:53:58.938Z,8.47
2022-09-28T22:56:26.317Z,7.40
2022-09-28T22:58:53.868Z,7.33
2022-09-28T23:01:25.523Z,8.23
2022-09-28T23:03:54.962Z,7.60
2022-09-28T23:06:26.317Z,6.37
2022-09-28T23:08:53.838Z,7.87
2022-09-28T23:11:21.207Z,6.43
2022-09-28T23:13:53.688Z,7.17
2022-09-28T23:16:23.623Z,7.00
2022-09-28T23:18:51.110Z,7.03
2022-09-28T23:21:22.125Z,6.50
2022-09-28T23:23:56.285Z,6.90
2022-09-28T23:26:32.041Z,6.83
2022-09-28T23:29:00.354Z,7.30
2022-09-28T23:31:31.173Z,7.13
2022-09-28T23:34:05.600Z,6.93
2022-09-28T23:36:33.826Z,6.57
2022-09-28T23:39:01.189Z,6.30
2022-09-28T23:41:29.074Z,6.77
2022-09-28T23:43:56.553Z,6.20
2022-09-28T23:46:24.160Z,7.00
2022-09-28T23:48:51.775Z,6.40
2022-09-28T23:51:19.240Z,6.33
2022-09-28T23:53:46.753Z,5.63
2022-09-28T23:56:14.724Z,6.60
2022-09-28T23:58:42.179Z,6.73
